createdAt,value
2018-06-03T00:00:25.841Z,97119.16
2018-06-03T00:05:19.248Z,97105.20
2018-06-03T00:10:13.320Z,97112.80
2018-06-03T00:15:06.683Z,97105.10
2018-06-03T00:19:59.969Z,97104.70
2018-06-03T00:24:53.257Z,97099.24
2018-06-03T00:29:46.577Z,97102.84
2018-06-03T00:34:39.974Z,97100.18
2018-06-03T00:39:33.329Z,97094.44
2018-06-03T00:44:30.173Z,97093.01
2018-06-03T00:49:23.479Z,97087.16
2018-06-03T00:54:16.764Z,97085.56
2018-06-03T00:59:10.036Z,97081.85
2018-06-03T01:04:04.371Z,97077.19
2018-06-03T01:08:57.640Z,97079.45
2018-06-03T01:13:50.922Z,97079.03
2018-06-03T01:18:44.237Z,97079.55
2018-06-03T01:23:37.592Z,97071.72
2018-06-03T01:28:30.870Z,97067.16
2018-06-03T01:33:24.157Z,97065.28
2018-06-03T01:38:17.433Z,97066.88
2018-06-03T01:43:10.744Z,97057.72
2018-06-03T01:48:04.793Z,97053.98
2018-06-03T01:52:58.528Z,97054.11
2018-06-03T01:57:51.802Z,97050.91
2018-06-03T02:02:45.863Z,97045.86
2018-06-03T02:07:39.136Z,97043.98
2018-06-03T02:12:32.443Z,97046.77
2018-06-03T02:17:27.364Z,97041.59
2018-06-03T02:22:21.409Z,97043.71
2018-06-03T02:27:14.685Z,97037.20
2018-06-03T02:32:07.976Z,97043.55
2018-06-03T02:37:01.271Z,97040.20
2018-06-03T02:41:54.571Z,97042.30
2018-06-03T02:46:48.624Z,97046.30
2018-06-03T02:51:42.103Z,97041.31
2018-06-03T02:56:35.386Z,97042.12
2018-06-03T03:01:28.669Z,97038.38
2018-06-03T03:06:21.937Z,97038.91
2018-06-03T03:11:15.265Z,97038.20
2018-06-03T03:16:08.554Z,97043.17
2018-06-03T03:21:01.874Z,97049.36
2018-06-03T03:25:55.168Z,97053.45
2018-06-03T03:30:48.465Z,97052.23
2018-06-03T03:35:42.508Z,97058.48
2018-06-03T03:40:35.797Z,97061.92
2018-06-03T03:45:29.067Z,97059.30
2018-06-03T03:50:22.355Z,97060.27
2018-06-03T03:55:15.642Z,97044.36
2018-06-03T04:00:08.938Z,97046.77
2018-06-03T04:05:02.244Z,97049.67
2018-06-03T04:09:55.541Z,97031.47
2018-06-03T04:14:48.833Z,97030.88
2018-06-03T04:19:42.104Z,97028.59
2018-06-03T04:24:35.395Z,97027.33
2018-06-03T04:29:28.762Z,97022.09
2018-06-03T04:34:22.053Z,97024.73
2018-06-03T04:39:15.473Z,97023.22
2018-06-03T04:44:09.520Z,97022.63
2018-06-03T04:49:02.806Z,97028.14
2018-06-03T04:53:56.090Z,97021.70
2018-06-03T04:58:49.374Z,97019.50
2018-06-03T05:03:42.676Z,97018.38
2018-06-03T05:08:36.739Z,97016.52
2018-06-03T05:13:30.030Z,97017.09
2018-06-03T05:18:24.117Z,97018.31
2018-06-03T05:23:17.403Z,97020.70
2018-06-03T05:28:10.693Z,97029.81
2018-06-03T05:33:03.966Z,97030.67
2018-06-03T05:37:57.299Z,97026.47
2018-06-03T05:42:51.301Z,97030.57
2018-06-03T05:47:44.601Z,97040.83
2018-06-03T05:52:37.881Z,97038.08
2018-06-03T05:57:31.173Z,97043.59
2018-06-03T06:02:24.445Z,97042.41
2018-06-03T06:07:17.737Z,97048.23
2018-06-03T06:12:11.784Z,97059.30
2018-06-03T06:17:05.070Z,97063.16
2018-06-03T06:21:58.638Z,97057.70
2018-06-03T06:26:51.933Z,97055.77
2018-06-03T06:31:45.209Z,97059.80
2018-06-03T06:36:38.513Z,97050.43
2018-06-03T06:41:31.795Z,97053.52
2018-06-03T06:46:25.101Z,97056.27
2018-06-03T06:51:18.376Z,97062.03
2018-06-03T06:56:11.671Z,97060.02
2018-06-03T07:01:04.989Z,97058.69
2018-06-03T07:05:58.257Z,97058.14
2018-06-03T07:10:51.545Z,97057.39
2018-06-03T07:15:44.846Z,97045.80
2018-06-03T07:20:38.149Z,97057.78
2018-06-03T07:25:31.440Z,97054.88
2018-06-03T07:30:25.124Z,97055.38
2018-06-03T07:35:18.463Z,97049.20
2018-06-03T07:40:11.757Z,97046.63
2018-06-03T07:45:05.847Z,97044.73
2018-06-03T07:49:59.901Z,97041.02
2018-06-03T07:54:53.311Z,97039.02
2018-06-03T07:59:46.606Z,97049.42
2018-06-03T08:04:40.689Z,97049.00
2018-06-03T08:09:34.753Z,97035.22
2018-06-03T08:14:28.041Z,97032.69
2018-06-03T08:19:21.325Z,97032.17
2018-06-03T08:24:14.620Z,97018.73
2018-06-03T08:34:09.257Z,97018.05
2018-06-03T08:39:03.307Z,97021.97
2018-06-03T08:43:56.636Z,97016.81
2018-06-03T08:48:50.705Z,97017.72
2018-06-03T08:53:43.994Z,97012.52
2018-06-03T08:58:37.315Z,97016.44
2018-06-03T09:03:30.598Z,97010.48
2018-06-03T09:08:23.904Z,97005.55
2018-06-03T09:13:17.193Z,97006.70
2018-06-03T09:18:10.544Z,97004.42
2018-06-03T09:23:03.829Z,97003.75
2018-06-03T09:27:57.132Z,96996.11
2018-06-03T09:32:50.468Z,97001.52
2018-06-03T09:37:43.781Z,96995.72
2018-06-03T09:42:37.092Z,96997.86
2018-06-03T09:47:31.156Z,96992.41
2018-06-03T09:52:24.432Z,96982.81
2018-06-03T09:57:17.733Z,96987.52
2018-06-03T10:02:11.793Z,96986.52
2018-06-03T10:07:05.113Z,96984.02
2018-06-03T10:11:59.160Z,96978.80
2018-06-03T10:16:52.448Z,96981.58
2018-06-03T10:21:45.730Z,96972.36
2018-06-03T10:26:39.029Z,96967.76
2018-06-03T10:31:33.105Z,96961.56
2018-06-03T10:36:26.380Z,96954.36
2018-06-03T10:41:19.656Z,96952.61
2018-06-03T10:46:13.018Z,96949.63
2018-06-03T10:51:06.310Z,96947.88
2018-06-03T10:55:59.605Z,96935.58
2018-06-03T11:00:52.893Z,96925.45
2018-06-03T11:05:46.982Z,96925.31
2018-06-03T11:10:40.253Z,96924.67
2018-06-03T11:15:33.582Z,96908.39
2018-06-03T11:20:26.881Z,96917.33
2018-06-03T11:25:20.176Z,96918.73
2018-06-03T11:30:13.465Z,96901.53
2018-06-03T11:35:06.754Z,96889.52
2018-06-03T11:40:00.822Z,96882.16
2018-06-03T11:44:54.109Z,96883.76
2018-06-03T11:49:47.393Z,96878.33
2018-06-03T11:54:40.694Z,96875.90
2018-06-03T11:59:40.281Z,96869.27
2018-06-03T12:04:33.567Z,96872.08
2018-06-03T12:09:26.861Z,96869.05
2018-06-03T12:14:20.135Z,96865.00
2018-06-03T12:19:13.433Z,96858.23
2018-06-03T12:24:06.729Z,96858.59
2018-06-03T12:29:00.034Z,96848.17
2018-06-03T12:33:53.336Z,96839.27
2018-06-03T12:38:46.647Z,96831.06
2018-06-03T12:43:39.940Z,96821.48
2018-06-03T12:48:34.266Z,96814.06
2018-06-03T12:53:27.560Z,96809.42
2018-06-03T12:58:20.845Z,96805.00
2018-06-03T13:03:14.134Z,96804.06
2018-06-03T13:08:07.502Z,96801.05
2018-06-03T13:13:01.441Z,96792.63
2018-06-03T13:17:55.069Z,96792.10
2018-06-03T13:22:48.487Z,96786.24
2018-06-03T13:27:41.824Z,96781.75
2018-06-03T13:32:35.105Z,96784.61
2018-06-03T13:37:29.521Z,96779.57
2018-06-03T13:42:22.812Z,96774.88
2018-06-03T13:47:16.109Z,96772.23
2018-06-03T13:52:10.165Z,96760.91
2018-06-03T13:57:03.449Z,96757.04
2018-06-03T14:01:56.757Z,96748.55
2018-06-03T18:32:23.181Z,96561.30
2018-06-03T18:37:17.682Z,96565.66
2018-06-03T18:42:12.216Z,96558.31
2018-06-03T18:47:07.003Z,96559.66
2018-06-03T18:52:01.537Z,96560.94
2018-06-03T18:56:57.661Z,96551.66
2018-06-03T19:01:58.372Z,96561.31
2018-06-03T19:06:53.688Z,96558.04
2018-06-03T19:11:49.009Z,96573.20
2018-06-03T19:16:43.887Z,96577.61
2018-06-03T19:21:38.369Z,96583.18
2018-06-03T19:26:32.927Z,96574.11
2018-06-03T19:31:29.666Z,96579.68
2018-06-03T19:36:25.350Z,96582.20
2018-06-03T19:41:21.961Z,96582.20
2018-06-03T19:46:16.910Z,96578.16
2018-06-03T19:51:12.049Z,96571.77
2018-06-03T19:56:06.814Z,96579.98
2018-06-03T20:01:06.448Z,96579.44
2018-06-03T20:06:02.143Z,96581.47
2018-06-03T20:10:56.625Z,96577.80
2018-06-03T20:15:51.140Z,96585.38
2018-06-03T20:20:47.573Z,96592.67
2018-06-03T20:25:44.234Z,96588.66
2018-06-03T21:09:46.228Z,96587.73
2018-06-03T21:14:40.847Z,96591.23
2018-06-03T21:19:35.538Z,96584.84
2018-06-03T21:24:30.273Z,96572.55
2018-06-03T21:29:25.216Z,96573.85
2018-06-03T21:34:24.689Z,96571.70
2018-06-03T21:39:19.281Z,96569.94
2018-06-03T21:44:13.949Z,96571.24
2018-06-03T21:49:08.523Z,96569.34
2018-06-03T21:54:12.202Z,96573.16
2018-06-03T21:59:06.756Z,96572.17
2018-06-03T22:04:01.169Z,96567.27
2018-06-03T22:08:55.592Z,96561.98
2018-06-03T22:13:50.042Z,96559.50
2018-06-03T22:18:44.585Z,96559.61
2018-06-03T22:23:39.077Z,96554.75
2018-06-03T22:28:33.562Z,96558.21
2018-06-03T22:33:28.007Z,96557.18
2018-06-03T22:38:22.409Z,96552.62
2018-06-03T22:43:16.990Z,96547.83
2018-06-03T22:48:11.919Z,96551.28
2018-06-03T22:53:06.487Z,96548.02
2018-06-03T22:58:00.627Z,96543.45
2018-06-03T23:03:00.236Z,96536.83
2018-06-03T23:07:55.038Z,96534.47
2018-06-03T23:12:49.657Z,96536.20
2018-06-03T23:17:44.254Z,96528.87
2018-06-03T23:22:38.828Z,96524.60
2018-06-03T23:27:33.261Z,96520.83
2018-06-03T23:32:27.801Z,96521.73
2018-06-03T23:37:22.237Z,96516.81
2018-06-03T23:42:16.705Z,96514.03
2018-06-03T23:47:11.113Z,96510.45
2018-06-03T23:52:06.280Z,96503.94
2018-06-03T23:57:00.711Z,96501.19
